Time;durP1;ratioP1;P1;durP2;ratioP2;P2;SDS_P1;SDS_P2;PMS_P1;PMS_P2;Temp;Humidity;BMP_temperature;BMP_pressure;BME280_temperature;BME280_humidity;BME280_pressure;Samples;Min_cycle;Max_cycle;Signal;HPM_P1;HPM_P2
2023/03/24 00:01:50;;;;;;;21.23;9.88;;;;;;;11.65;59.83;99517.16;4381186;32;20480;-83
2023/03/24 00:04:15;;;;;;;17.12;8.73;;;;;;;11.50;59.83;99508.19;4371812;32;20186;-84
2023/03/24 00:06:42;;;;;;;18.73;9.93;;;;;;;11.73;59.84;99515.09;4394115;32;20491;-83
2023/03/24 00:09:07;;;;;;;15.88;9.90;;;;;;;11.58;59.83;99506.09;4393263;32;20137;-82
2023/03/24 00:11:33;;;;;;;17.67;9.65;;;;;;;11.51;59.83;99511.63;4381198;32;20101;-83
2023/03/24 00:13:59;;;;;;;15.88;9.25;;;;;;;11.55;59.83;99510.59;4381103;32;20447;-84
2023/03/24 00:16:25;;;;;;;18.95;9.73;;;;;;;11.44;59.83;99505.81;4381456;32;20090;-84
2023/03/24 00:18:51;;;;;;;18.85;10.93;;;;;;;11.51;59.83;99504.66;4367798;32;20178;-85
2023/03/24 00:21:20;;;;;;;15.65;9.50;;;;;;;11.45;59.83;99506.66;4394062;32;20170;-84
2023/03/24 00:23:46;;;;;;;16.67;9.65;;;;;;;11.42;59.82;99509.41;4381556;32;20486;-84
2023/03/24 00:26:14;;;;;;;17.85;9.40;;;;;;;11.34;59.82;99510.53;4394079;32;20120;-85
2023/03/24 00:28:39;;;;;;;19.12;8.65;;;;;;;11.40;59.82;99504.25;4381517;32;20144;-85
2023/03/24 00:31:05;;;;;;;13.35;8.57;;;;;;;11.37;59.83;99494.81;4381546;32;20973;-85
2023/03/24 00:33:31;;;;;;;16.92;9.88;;;;;;;11.45;59.83;99498.84;4393784;32;20089;-83
2023/03/24 00:35:57;;;;;;;16.40;9.20;;;;;;;11.45;59.83;99499.69;4381345;32;20152;-84
2023/03/24 00:38:23;;;;;;;14.85;9.07;;;;;;;11.47;59.83;99497.03;4381161;32;20098;-84
2023/03/24 00:40:49;;;;;;;19.15;9.10;;;;;;;11.30;59.81;99497.69;4393527;32;20163;-84
2023/03/24 00:43:15;;;;;;;17.40;9.02;;;;;;;11.12;59.81;99487.97;4407420;32;20249;-85
2023/03/24 00:45:45;;;;;;;16.70;9.68;;;;;;;10.94;59.80;99486.94;4381237;32;20086;-84
2023/03/24 00:48:23;;;;;;;20.08;9.40;;;;;;;11.01;59.80;99491.00;4407698;32;20097;-85
2023/03/24 00:50:49;;;;;;;17.17;10.00;;;;;;;11.01;59.80;99478.81;4379430;32;20110;-84
2023/03/24 00:53:15;;;;;;;14.27;9.40;;;;;;;10.90;59.80;99467.97;4366102;32;20563;-85
2023/03/24 00:55:41;;;;;;;14.60;8.95;;;;;;;10.80;59.79;99464.00;4353660;32;20115;-85
2023/03/24 00:58:07;;;;;;;21.30;10.13;;;;;;;10.76;59.79;99459.81;4366043;32;20505;-85
2023/03/24 01:00:32;;;;;;;22.87;10.40;;;;;;;10.86;59.80;99455.94;4378279;32;20110;-86
2023/03/24 01:02:57;;;;;;;16.12;9.60;;;;;;;10.84;59.79;99449.97;4392376;32;20193;-84
2023/03/24 01:05:26;;;;;;;20.70;11.68;;;;;;;10.77;59.79;99449.34;4365421;32;20467;-84
2023/03/24 01:07:52;;;;;;;21.87;13.57;;;;;;;10.84;59.79;99449.09;4354068;32;20142;-84
2023/03/24 01:10:20;;;;;;;24.00;13.43;;;;;;;11.13;59.80;99450.63;4366547;32;20505;-82
2023/03/24 01:12:46;;;;;;;22.35;12.80;;;;;;;11.25;59.81;99447.53;4391353;32;20082;-84
2023/03/24 01:15:17;;;;;;;16.40;10.82;;;;;;;11.00;59.80;99451.09;4365594;32;20112;-83
2023/03/24 01:17:42;;;;;;;19.08;10.98;;;;;;;10.92;59.80;99440.12;4378153;32;20511;-83
2023/03/24 01:20:10;;;;;;;18.73;10.25;;;;;;;10.88;59.79;99432.47;4392246;32;20185;-83
2023/03/24 01:22:36;;;;;;;18.15;11.23;;;;;;;10.97;59.79;99432.13;4392349;32;20117;-83
2023/03/24 01:25:03;;;;;;;16.35;10.50;;;;;;;10.94;59.80;99429.66;4378357;32;20087;-83
2023/03/24 01:27:28;;;;;;;17.25;10.35;;;;;;;11.01;59.80;99420.69;4392012;32;20086;-83
2023/03/24 01:29:58;;;;;;;15.75;9.45;;;;;;;10.92;59.80;99421.91;4378532;32;20535;-83
2023/03/24 01:32:23;;;;;;;18.00;9.98;;;;;;;10.82;59.79;99428.34;4368549;32;20098;-83
2023/03/24 01:34:49;;;;;;;16.65;9.68;;;;;;;10.75;59.78;99425.12;4391927;32;20090;-83
2023/03/24 01:37:14;;;;;;;15.20;9.23;;;;;;;10.87;59.79;99422.94;4391741;32;22535;-83
2023/03/24 01:39:40;;;;;;;16.62;8.95;;;;;;;10.83;59.79;99421.37;4377853;32;20146;-84
2023/03/24 01:42:05;;;;;;;17.15;9.07;;;;;;;10.82;59.79;99406.66;4377978;32;20138;-85
2023/03/24 01:44:35;;;;;;;22.45;10.45;;;;;;;10.74;59.78;99413.03;4377715;32;20412;-84
2023/03/24 01:47:01;;;;;;;17.87;10.60;;;;;;;10.65;59.78;99421.19;4365947;32;20111;-82
2023/03/24 01:49:31;;;;;;;15.82;10.07;;;;;;;10.66;59.78;99417.69;4365556;32;20106;-83
2023/03/24 01:51:59;;;;;;;15.70;9.77;;;;;;;10.52;59.78;99413.87;4376014;32;20972;-84
2023/03/24 01:54:34;;;;;;;18.92;10.25;;;;;;;10.59;59.77;99416.19;4366060;32;20090;-83
2023/03/24 01:57:14;;;;;;;15.75;9.57;;;;;;;10.63;59.79;99416.91;4365957;32;20152;-84
2023/03/24 01:59:42;;;;;;;16.25;9.52;;;;;;;10.49;59.77;99414.84;4366873;32;20102;-84
2023/03/24 02:02:08;;;;;;;15.57;9.70;;;;;;;10.42;59.77;99418.59;4353677;32;20113;-83
2023/03/24 02:04:37;;;;;;;17.92;10.93;;;;;;;10.52;59.77;99413.87;4378194;32;20149;-84
2023/03/24 02:07:10;;;;;;;17.37;10.57;;;;;;;10.49;59.77;99412.25;4353720;32;20136;-83
2023/03/24 02:09:36;;;;;;;16.55;10.48;;;;;;;10.52;59.77;99404.31;4366419;32;20101;-83
2023/03/24 02:12:01;;;;;;;16.60;9.57;;;;;;;10.50;59.78;99406.13;4378247;32;20193;-84
2023/03/24 02:14:27;;;;;;;16.37;10.63;;;;;;;10.62;59.78;99410.88;4378197;32;20130;-83
2023/03/24 02:17:15;;;;;;;20.48;10.27;;;;;;;10.38;59.78;99407.41;4365460;32;20125;-83
2023/03/24 02:19:52;;;;;;;15.52;9.82;;;;;;;10.50;59.78;99405.28;4370227;32;20105;-84
2023/03/24 02:22:43;;;;;;;17.33;9.80;;;;;;;10.49;59.77;99408.78;4365672;32;20472;-85
2023/03/24 02:25:26;;;;;;;17.87;9.38;;;;;;;10.30;59.76;99396.44;4378622;32;20118;-85
2023/03/24 02:28:08;;;;;;;20.45;9.88;;;;;;;10.42;59.77;99400.38;4379807;32;20451;-85
2023/03/24 02:30:51;;;;;;;16.50;10.05;;;;;;;10.09;59.75;99405.84;4393597;32;20086;-85
2023/03/24 02:33:41;;;;;;;17.50;9.65;;;;;;;10.25;59.76;99405.34;4393412;32;20098;-85
2023/03/24 02:36:35;;;;;;;16.35;11.05;;;;;;;10.23;59.75;99405.41;4393820;32;20431;-85
2023/03/24 02:39:22;;;;;;;15.98;10.07;;;;;;;10.21;59.75;99414.16;4357411;32;20133;-84
2023/03/24 02:41:59;;;;;;;19.65;9.30;;;;;;;9.97;59.74;99411.50;4393527;32;20110;-84
2023/03/24 02:44:24;;;;;;;17.50;10.02;;;;;;;10.12;59.75;99407.47;4393424;32;20168;-84
2023/03/24 02:46:58;;;;;;;19.02;10.05;;;;;;;9.91;59.74;99406.47;4393322;32;20376;-84
2023/03/24 02:49:34;;;;;;;20.73;9.25;;;;;;;10.01;59.75;99402.69;4355251;32;20107;-83
2023/03/24 02:52:05;;;;;;;16.87;9.73;;;;;;;10.14;59.75;99395.28;4388150;32;20124;-84
2023/03/24 02:54:48;;;;;;;18.90;9.45;;;;;;;10.00;59.74;99387.97;4367182;32;20082;-84
2023/03/24 02:57:20;;;;;;;17.50;10.52;;;;;;;9.99;59.74;99383.69;4380679;32;20109;-84
2023/03/24 02:59:59;;;;;;;16.35;9.73;;;;;;;10.02;59.75;99382.72;4367093;32;20126;-84
2023/03/24 03:02:27;;;;;;;15.18;8.73;;;;;;;9.97;59.74;99382.88;4368120;32;20119;-84
2023/03/24 03:04:59;;;;;;;21.37;10.88;;;;;;;9.98;59.74;99376.78;4354720;32;20095;-84
2023/03/24 03:07:25;;;;;;;15.43;9.45;;;;;;;10.00;59.74;99380.19;4367572;32;20166;-84
2023/03/24 03:10:08;;;;;;;18.87;10.25;;;;;;;9.95;59.74;99374.31;4379567;32;20122;-84
2023/03/24 03:12:34;;;;;;;18.50;10.80;;;;;;;10.02;59.75;99367.97;4368415;32;20158;-84
2023/03/24 03:15:34;;;;;;;19.17;11.68;;;;;;;10.19;59.75;99366.53;4354848;32;20232;-84
2023/03/24 03:18:21;;;;;;;19.05;10.52;;;;;;;10.02;59.73;99374.91;4370952;32;20502;-84
2023/03/24 03:20:49;;;;;;;16.65;9.65;;;;;;;9.88;59.73;99380.59;4379423;32;20118;-84
2023/03/24 03:23:16;;;;;;;20.60;11.00;;;;;;;9.94;59.75;99375.19;4367268;32;20148;-84
2023/03/24 03:25:49;;;;;;;19.17;11.02;;;;;;;10.03;59.75;99366.22;4366969;32;20513;-84
2023/03/24 03:28:16;;;;;;;16.55;9.95;;;;;;;9.91;59.73;99369.25;4367541;32;20408;-85
2023/03/24 03:30:51;;;;;;;17.58;10.73;;;;;;;9.90;59.74;99367.53;4379380;32;20107;-84
2023/03/24 03:33:24;;;;;;;20.12;10.82;;;;;;;9.78;59.73;99369.69;4366828;32;20107;-84
2023/03/24 03:36:29;;;;;;;20.10;11.52;;;;;;;9.80;59.74;99367.87;4366967;32;20169;-84
2023/03/24 03:39:14;;;;;;;20.23;12.00;;;;;;;9.98;59.74;99369.00;4366487;32;20176;-84
2023/03/24 03:41:40;;;;;;;18.83;10.85;;;;;;;9.84;59.73;99379.00;4392211;32;20090;-83
2023/03/24 03:44:05;;;;;;;20.05;11.50;;;;;;;9.94;59.75;99376.94;4366577;32;20195;-83
2023/03/24 03:46:31;;;;;;;31.75;12.85;;;;;;;9.99;59.74;99367.22;4366707;32;20478;-83
2023/03/24 03:48:56;;;;;;;21.73;12.65;;;;;;;10.00;59.74;99372.38;4354278;32;20169;-83
2023/03/24 03:51:21;;;;;;;20.02;11.70;;;;;;;10.00;59.74;99361.13;4361373;32;20300;-82
2023/03/24 03:53:51;;;;;;;24.30;12.80;;;;;;;10.03;59.75;99366.22;4394024;32;22998;-83
2023/03/24 03:56:17;;;;;;;21.10;12.63;;;;;;;10.01;59.73;99366.28;4381985;32;20623;-82
2023/03/24 03:58:45;;;;;;;20.75;13.18;;;;;;;10.03;59.74;99361.88;4381751;32;20198;-82
2023/03/24 04:01:18;;;;;;;21.05;12.70;;;;;;;10.12;59.75;99364.12;4382157;32;20113;-82
2023/03/24 04:04:10;;;;;;;20.95;13.40;;;;;;;10.07;59.74;99362.59;4393338;32;20148;-83
2023/03/24 04:06:36;;;;;;;21.17;13.23;;;;;;;10.08;59.74;99359.94;4385258;32;20102;-83
2023/03/24 04:09:17;;;;;;;22.92;13.52;;;;;;;10.10;59.75;99357.28;4408087;32;20077;-83
2023/03/24 04:12:17;;;;;;;22.65;13.82;;;;;;;10.06;59.74;99351.34;4383004;32;20171;-83
2023/03/24 04:14:50;;;;;;;22.17;13.48;;;;;;;10.09;59.75;99342.59;4385871;32;20110;-83
2023/03/24 04:17:32;;;;;;;23.60;14.55;;;;;;;10.13;59.75;99355.41;4394028;32;20499;-83
2023/03/24 04:20:13;;;;;;;22.77;13.85;;;;;;;10.10;59.75;99350.31;4395646;32;20168;-83
2023/03/24 04:22:47;;;;;;;27.08;13.43;;;;;;;10.12;59.75;99356.31;4360810;32;20117;-83
2023/03/24 04:25:29;;;;;;;20.75;13.38;;;;;;;10.05;59.75;99356.59;4393717;32;20187;-83
2023/03/24 04:28:15;;;;;;;23.25;13.52;;;;;;;10.06;59.74;99361.75;4394001;32;20105;-84
2023/03/24 04:30:46;;;;;;;24.98;14.18;;;;;;;10.08;59.74;99352.13;4383092;32;20106;-84
2023/03/24 04:33:16;;;;;;;25.67;15.43;;;;;;;10.04;59.74;99350.56;4381867;32;20109;-84
2023/03/24 04:35:55;;;;;;;23.95;14.50;;;;;;;10.00;59.74;99353.31;4381772;32;20114;-84
2023/03/24 04:38:24;;;;;;;24.23;14.55;;;;;;;10.10;59.75;99350.31;4369155;32;20094;-84
2023/03/24 04:40:50;;;;;;;25.10;14.05;;;;;;;9.95;59.74;99355.25;4381745;32;20481;-84
2023/03/24 04:43:17;;;;;;;24.50;14.73;;;;;;;9.90;59.74;99355.38;4381327;32;20133;-83
2023/03/24 04:45:48;;;;;;;27.45;14.98;;;;;;;10.05;59.75;99357.44;4381433;32;20171;-83
2023/03/24 04:48:13;;;;;;;24.30;15.02;;;;;;;10.00;59.74;99353.31;4382145;32;20086;-84
2023/03/24 04:50:41;;;;;;;26.77;15.00;;;;;;;10.07;59.75;99357.41;4378223;32;20099;-85
2023/03/24 04:53:07;;;;;;;29.12;15.10;;;;;;;10.03;59.75;99359.25;4366191;32;20102;-84
2023/03/24 04:55:42;;;;;;;23.38;14.95;;;;;;;9.93;59.74;99364.81;4366344;32;20105;-84
2023/03/24 04:58:07;;;;;;;27.33;14.90;;;;;;;9.85;59.73;99357.31;4392510;32;20141;-84
2023/03/24 05:00:35;;;;;;;28.75;15.85;;;;;;;9.83;59.73;99365.16;4378691;32;20150;-83
2023/03/24 05:03:01;;;;;;;25.30;15.35;;;;;;;9.85;59.73;99373.75;4366197;32;20518;-83
2023/03/24 05:05:28;;;;;;;25.37;14.35;;;;;;;9.83;59.73;99372.12;4378610;32;20150;-84
2023/03/24 05:07:55;;;;;;;26.80;14.87;;;;;;;9.91;59.73;99374.44;4366316;32;20105;-84
2023/03/24 05:10:22;;;;;;;27.70;14.38;;;;;;;10.00;59.74;99376.72;4366518;32;20200;-84
2023/03/24 05:12:48;;;;;;;25.52;15.45;;;;;;;10.30;59.76;99374.78;4366079;32;20144;-83
2023/03/24 05:15:14;;;;;;;25.83;14.20;;;;;;;10.15;59.75;99384.81;4366240;32;20106;-84
2023/03/24 05:17:39;;;;;;;22.75;14.10;;;;;;;10.00;59.74;99387.97;4378391;32;20160;-84
2023/03/24 05:20:09;;;;;;;24.50;14.07;;;;;;;10.00;59.74;99379.31;4391428;32;20110;-81
2023/03/24 05:22:35;;;;;;;25.45;14.63;;;;;;;10.02;59.75;99373.16;4367150;32;20173;-84
2023/03/24 05:25:01;;;;;;;27.85;15.35;;;;;;;10.09;59.75;99372.03;4378672;32;20140;-83
2023/03/24 05:27:26;;;;;;;26.80;15.90;;;;;;;10.16;59.75;99375.25;4365930;32;20150;-82
2023/03/24 05:29:52;;;;;;;28.38;17.10;;;;;;;10.19;59.76;99369.13;4378524;32;20130;-84
2023/03/24 05:32:17;;;;;;;27.05;16.05;;;;;;;10.09;59.75;99379.00;4365471;32;22562;-83
2023/03/24 05:34:43;;;;;;;28.90;16.12;;;;;;;10.15;59.74;99379.59;4365868;32;20146;-84
2023/03/24 05:37:11;;;;;;;28.95;16.73;;;;;;;10.19;59.75;99379.53;4353512;32;20122;-85
2023/03/24 05:39:37;;;;;;;28.12;17.48;;;;;;;10.52;59.77;99378.31;4366599;32;20455;-85
2023/03/24 05:42:02;;;;;;;30.90;17.87;;;;;;;10.66;59.78;99377.78;4378533;32;20181;-85
2023/03/24 05:44:28;;;;;;;30.95;17.25;;;;;;;10.84;59.79;99373.59;4353349;32;20102;-85
2023/03/24 05:46:53;;;;;;;28.38;15.18;;;;;;;10.84;59.79;99379.66;4365699;32;20514;-85
2023/03/24 05:49:18;;;;;;;31.80;16.55;;;;;;;10.91;59.79;99385.50;4377737;32;20133;-85
2023/03/24 05:51:44;;;;;;;30.83;16.87;;;;;;;11.25;59.81;99379.78;4365120;32;20142;-85
2023/03/24 05:54:09;;;;;;;28.27;14.32;;;;;;;11.58;59.83;99378.38;4365459;32;20504;-85
2023/03/24 05:56:34;;;;;;;28.80;14.40;;;;;;;11.50;59.82;99379.62;4368275;32;20129;-85
2023/03/24 05:59:00;;;;;;;24.73;14.60;;;;;;;11.58;59.83;99377.53;4364352;32;21831;-85
2023/03/24 06:01:27;;;;;;;28.70;15.02;;;;;;;11.60;59.83;99376.59;4380035;32;21586;-85
2023/03/24 06:03:53;;;;;;;23.65;15.07;;;;;;;11.92;59.85;99379.59;4365490;32;20428;-84
2023/03/24 06:06:18;;;;;;;26.67;15.23;;;;;;;12.11;59.85;99372.66;4365565;32;20152;-85
2023/03/24 06:08:43;;;;;;;23.58;14.90;;;;;;;12.17;59.86;99367.16;4384239;32;22605;-85
2023/03/24 06:11:09;;;;;;;24.35;14.73;;;;;;;12.23;59.86;99372.09;4376691;32;20245;-87
2023/03/24 06:13:35;;;;;;;22.90;13.70;;;;;;;12.57;59.88;99368.81;4365676;32;20467;-86
2023/03/24 06:16:00;;;;;;;27.17;14.68;;;;;;;12.70;59.88;99374.31;4376779;32;20102;-86
2023/03/24 06:18:26;;;;;;;25.65;14.32;;;;;;;12.99;59.91;99378.16;4384631;32;20149;-85
2023/03/24 06:20:55;;;;;;;22.77;13.50;;;;;;;13.30;59.92;99369.72;4352804;32;20372;-84
2023/03/24 06:23:24;;;;;;;24.42;15.02;;;;;;;13.31;59.92;99376.66;4375867;32;20109;-85
2023/03/24 06:25:51;;;;;;;24.83;13.70;;;;;;;13.49;59.94;99367.06;4365344;32;20151;-84
2023/03/24 06:28:16;;;;;;;21.73;12.43;;;;;;;13.44;59.93;99367.25;4365667;32;20850;-84
2023/03/24 06:30:45;;;;;;;28.10;13.70;;;;;;;13.57;59.93;99366.66;4377695;32;20090;-83
2023/03/24 06:33:12;;;;;;;22.52;13.23;;;;;;;13.62;59.93;99372.50;4353160;32;20132;-85
2023/03/24 06:35:38;;;;;;;24.98;12.95;;;;;;;13.83;59.95;99374.03;4367389;32;20430;-84
2023/03/24 06:38:03;;;;;;;19.83;12.90;;;;;;;13.98;59.95;99367.19;4377919;32;20137;-85
2023/03/24 06:40:29;;;;;;;23.33;13.75;;;;;;;14.13;59.97;99359.34;4377059;32;20830;-87
2023/03/24 06:42:55;;;;;;;17.12;11.50;;;;;;;14.28;59.98;99357.69;4364855;32;20106;-85
2023/03/24 06:45:20;;;;;;;22.42;12.70;;;;;;;14.36;59.98;99347.66;4391073;32;20130;-84
2023/03/24 06:47:45;;;;;;;18.42;12.88;;;;;;;14.45;59.98;99353.37;4377161;32;20142;-85
2023/03/24 06:50:11;;;;;;;19.65;12.80;;;;;;;14.54;59.99;99347.63;4364615;32;20162;-85
2023/03/24 06:52:36;;;;;;;20.12;14.20;;;;;;;14.77;59.99;99343.75;4405864;32;20155;-85
2023/03/24 06:55:02;;;;;;;19.90;13.05;;;;;;;14.89;60.01;99340.41;4391978;32;20526;-85
2023/03/24 06:57:27;;;;;;;20.27;12.43;;;;;;;14.93;60.00;99337.56;4406400;32;20100;-85
2023/03/24 06:59:53;;;;;;;20.52;12.15;;;;;;;15.09;60.01;99331.44;4377213;32;20173;-85
2023/03/24 07:02:19;;;;;;;21.23;13.05;;;;;;;15.27;60.03;99328.59;4386704;32;20107;-86
2023/03/24 07:04:44;;;;;;;19.37;12.35;;;;;;;15.35;60.03;99330.78;4391979;32;20086;-84
2023/03/24 07:07:11;;;;;;;19.83;12.07;;;;;;;15.32;60.04;99323.09;4379135;32;22708;-84
2023/03/24 07:09:37;;;;;;;19.62;11.70;;;;;;;15.53;60.04;99328.88;4379665;32;20149;-85
2023/03/24 07:12:06;;;;;;;20.55;12.32;;;;;;;15.56;60.05;99323.44;4381216;32;20132;-85
2023/03/24 07:14:32;;;;;;;21.35;12.35;;;;;;;15.76;60.05;99327.53;4382442;32;20094;-85
2023/03/24 07:16:58;;;;;;;18.80;11.70;;;;;;;15.96;60.07;99321.94;4381807;32;20431;-85
2023/03/24 07:19:24;;;;;;;23.35;12.00;;;;;;;16.07;60.07;99332.59;4394644;32;20502;-85
2023/03/24 07:21:49;;;;;;;22.60;12.48;;;;;;;16.16;60.08;99328.59;4394672;32;20102;-86
2023/03/24 07:24:18;;;;;;;20.60;13.50;;;;;;;16.33;60.09;99317.91;4394384;32;20082;-85
2023/03/24 07:26:43;;;;;;;20.10;12.60;;;;;;;16.51;60.09;99313.25;4382089;32;20082;-85
2023/03/24 07:29:09;;;;;;;20.23;13.00;;;;;;;16.60;60.10;99317.94;4382045;32;21305;-85
2023/03/24 07:31:36;;;;;;;22.02;12.23;;;;;;;16.56;60.10;99311.16;4394630;32;20128;-85
2023/03/24 07:34:05;;;;;;;18.85;11.85;;;;;;;16.65;60.11;99310.59;4397298;32;20133;-85
2023/03/24 07:36:31;;;;;;;19.42;12.85;;;;;;;17.03;60.12;99299.41;4381722;32;20168;-85
2023/03/24 07:38:56;;;;;;;18.85;12.10;;;;;;;17.18;60.13;99301.88;4394174;32;20129;-85
2023/03/24 07:41:23;;;;;;;21.02;12.50;;;;;;;17.25;60.13;99309.34;4368800;32;20168;-85
2023/03/24 07:43:48;;;;;;;19.50;13.07;;;;;;;17.30;60.15;99305.50;4394305;32;20140;-86
2023/03/24 07:46:14;;;;;;;20.85;11.85;;;;;;;17.44;60.14;99308.03;4393937;32;20367;-85
2023/03/24 07:48:40;;;;;;;22.08;13.60;;;;;;;17.56;60.16;99308.16;4369248;32;20141;-86
2023/03/24 07:51:05;;;;;;;22.98;13.52;;;;;;;17.71;60.16;99312.41;4381415;32;20098;-85
2023/03/24 07:53:32;;;;;;;19.98;12.73;;;;;;;17.79;60.16;99304.84;4406881;32;20129;-86
2023/03/24 07:55:58;;;;;;;29.23;13.27;;;;;;;17.88;60.17;99313.88;4394345;32;20185;-86
2023/03/24 07:58:23;;;;;;;17.98;12.20;;;;;;;18.03;60.18;99308.41;4381493;32;20164;-85
2023/03/24 08:00:48;;;;;;;22.17;13.00;;;;;;;17.98;60.17;99310.53;4393828;32;20098;-85
2023/03/24 08:03:14;;;;;;;23.67;12.45;;;;;;;18.30;60.20;99304.78;4393690;32;20102;-85
2023/03/24 08:05:40;;;;;;;17.98;11.27;;;;;;;18.44;60.20;99307.25;4394142;32;20436;-86
2023/03/24 08:08:06;;;;;;;15.80;9.80;;;;;;;18.54;60.21;99305.69;4369077;32;20117;-86
2023/03/24 08:10:31;;;;;;;21.02;11.35;;;;;;;18.56;60.21;99298.50;4393684;32;20141;-85
2023/03/24 08:12:57;;;;;;;20.67;12.15;;;;;;;18.52;60.20;99286.50;4381117;32;20141;-85
2023/03/24 08:15:23;;;;;;;15.95;10.20;;;;;;;18.85;60.22;99288.50;4380701;32;20086;-85
2023/03/24 08:17:48;;;;;;;10.60;7.55;;;;;;;18.75;60.21;99282.22;4381629;32;20124;-85
2023/03/24 08:20:14;;;;;;;14.65;8.60;;;;;;;18.91;60.22;99282.75;4407764;32;20143;-85
2023/03/24 08:22:44;;;;;;;15.18;6.75;;;;;;;19.09;60.24;99271.81;4407391;32;20122;-85
2023/03/24 08:25:10;;;;;;;;;;;;;;;19.38;60.25;99273.09;4394130;32;20098;-85
2023/03/24 08:27:36;;;;;;;11.18;7.20;;;;;;;19.50;60.25;99272.19;4394240;32;20236;-85
2023/03/24 08:30:04;;;;;;;12.23;7.87;;;;;;;19.59;60.26;99268.00;4393937;32;20101;-84
2023/03/24 08:32:29;;;;;;;11.10;7.18;;;;;;;19.73;60.27;99256.41;4394058;32;20164;-84
2023/03/24 08:34:56;;;;;;;14.55;8.10;;;;;;;19.97;60.28;99249.22;4381059;32;20090;-85
2023/03/24 08:37:22;;;;;;;12.65;8.63;;;;;;;20.20;60.29;99247.37;4368880;32;20115;-85
2023/03/24 08:39:47;;;;;;;14.15;8.95;;;;;;;20.47;60.31;99250.50;4393141;32;20150;-85
2023/03/24 08:42:12;;;;;;;13.25;8.13;;;;;;;20.35;60.30;99248.81;4393979;32;20149;-86
2023/03/24 08:44:38;;;;;;;12.00;8.00;;;;;;;20.48;60.31;99246.87;4407291;32;20078;-85
2023/03/24 08:47:03;;;;;;;14.82;8.05;;;;;;;20.69;60.31;99244.28;4393328;32;20732;-86
2023/03/24 08:49:29;;;;;;;13.30;8.15;;;;;;;20.73;60.32;99243.06;4392746;32;20645;-86
2023/03/24 08:51:54;;;;;;;12.63;7.82;;;;;;;20.51;60.31;99237.84;4381045;32;20379;-86
2023/03/24 08:54:22;;;;;;;13.18;8.27;;;;;;;20.62;60.32;99237.00;4380373;32;20098;-86
2023/03/24 08:56:47;;;;;;;13.77;6.82;;;;;;;20.62;60.32;99243.12;4394096;32;20106;-85
2023/03/24 08:59:13;;;;;;;11.10;7.20;;;;;;;20.81;60.33;99238.00;4393361;32;20163;-85
2023/03/24 09:01:39;;;;;;;13.80;8.43;;;;;;;20.93;60.33;99246.72;4380613;32;20098;-85
2023/03/24 09:04:04;;;;;;;12.68;8.77;;;;;;;20.86;60.33;99248.22;4392932;32;20102;-85
2023/03/24 09:06:31;;;;;;;16.08;8.93;;;;;;;20.81;60.33;99245.09;4380984;32;20153;-85
2023/03/24 09:08:56;;;;;;;13.73;8.90;;;;;;;20.65;60.32;99247.31;4393542;32;20506;-85
2023/03/24 09:11:22;;;;;;;15.40;9.23;;;;;;;20.80;60.33;99240.75;4380475;32;20132;-85
2023/03/24 09:13:48;;;;;;;15.00;8.73;;;;;;;20.95;60.34;99242.16;4393661;32;20130;-85
2023/03/24 09:16:13;;;;;;;14.90;7.00;;;;;;;21.02;60.34;99237.19;4368588;32;20130;-85
2023/03/24 09:18:39;;;;;;;14.00;7.68;;;;;;;21.06;60.34;99239.47;4380574;32;20118;-85
2023/03/24 09:21:05;;;;;;;12.52;7.47;;;;;;;21.11;60.34;99236.44;4381379;32;20109;-85
2023/03/24 09:23:30;;;;;;;12.25;6.75;;;;;;;21.34;60.36;99232.72;4393495;32;20116;-85
2023/03/24 09:25:56;;;;;;;18.95;7.40;;;;;;;21.38;60.35;99228.84;4392681;32;25738;-85
2023/03/24 09:28:21;;;;;;;13.62;7.07;;;;;;;21.40;60.36;99226.06;4393764;32;20150;-85
2023/03/24 09:30:46;;;;;;;11.50;7.55;;;;;;;21.49;60.37;99219.97;4380420;32;21773;-85
2023/03/24 09:33:12;;;;;;;11.05;6.78;;;;;;;21.68;60.37;99220.06;4393542;32;20460;-85
2023/03/24 09:35:37;;;;;;;12.80;7.20;;;;;;;21.86;60.39;99209.69;4380041;32;20165;-85
2023/03/24 09:38:03;;;;;;;8.63;6.25;;;;;;;21.91;60.39;99206.66;4368639;32;20156;-85
2023/03/24 09:40:31;;;;;;;10.60;6.70;;;;;;;21.99;60.39;99207.66;4381160;32;20126;-85
2023/03/24 09:43:07;;;;;;;10.77;6.53;;;;;;;22.23;60.40;99198.53;4381229;32;20101;-85
2023/03/24 09:45:35;;;;;;;11.40;8.23;;;;;;;22.28;60.41;99202.47;4393672;32;20176;-85
2023/03/24 09:48:18;;;;;;;10.95;6.68;;;;;;;22.43;60.41;99194.94;4368634;32;20101;-85
2023/03/24 09:50:58;;;;;;;9.77;6.95;;;;;;;22.43;60.41;99196.75;4375255;32;184362;-85
2023/03/24 09:53:30;;;;;;;11.88;7.20;;;;;;;22.64;60.43;99184.22;4368235;32;20132;-85
2023/03/24 09:55:57;;;;;;;11.20;7.05;;;;;;;22.79;60.44;99182.81;4393311;32;20118;-85
2023/03/24 09:58:23;;;;;;;11.50;7.43;;;;;;;22.86;60.44;99185.78;4381040;32;20224;-86
2023/03/24 10:00:48;;;;;;;10.90;7.30;;;;;;;22.89;60.44;99183.69;4380426;32;20433;-85
2023/03/24 10:03:20;;;;;;;14.55;6.68;;;;;;;22.91;60.44;99173.75;4377644;32;20143;-85
2023/03/24 10:05:55;;;;;;;14.20;7.28;;;;;;;22.95;60.45;99177.81;4362746;32;20170;-86
2023/03/24 10:08:35;;;;;;;19.92;7.43;;;;;;;23.05;60.45;99169.84;4380907;32;20106;-85
2023/03/24 10:11:09;;;;;;;10.65;6.20;;;;;;;23.23;60.46;99167.28;4380779;32;20086;-85
2023/03/24 10:13:49;;;;;;;12.50;6.43;;;;;;;23.41;60.46;99162.87;4380859;32;20101;-86
2023/03/24 10:16:40;;;;;;;13.98;6.32;;;;;;;23.66;60.48;99150.81;4393034;32;20103;-85
2023/03/24 10:19:14;;;;;;;12.15;6.40;;;;;;;23.58;60.47;99140.91;4393232;32;20174;-85
2023/03/24 10:21:40;;;;;;;9.15;4.35;;;;;;;23.84;60.49;99140.22;4406826;32;20501;-85
2023/03/24 10:24:17;;;;;;;8.48;4.47;;;;;;;24.14;60.51;99139.94;4367914;32;20484;-86
2023/03/24 10:27:05;;;;;;;9.75;4.80;;;;;;;24.34;60.51;99142.47;4359492;32;20375;-85
2023/03/24 10:29:35;;;;;;;7.18;3.50;;;;;;;24.49;60.52;99132.97;4372543;32;20110;-85
2023/03/24 10:32:05;;;;;;;9.85;4.25;;;;;;;24.70;60.54;99128.16;4380240;32;20469;-86
2023/03/24 10:34:31;;;;;;;8.65;4.62;;;;;;;24.81;60.54;99127.06;4380873;32;20528;-85
2023/03/24 10:36:58;;;;;;;9.05;3.90;;;;;;;24.71;60.54;99123.69;4380492;32;20481;-82
2023/03/24 10:39:23;;;;;;;9.30;4.43;;;;;;;24.76;60.54;99122.22;4380419;32;20118;-83
2023/03/24 10:41:49;;;;;;;7.62;3.78;;;;;;;24.79;60.54;99124.56;4392585;32;20130;-83
2023/03/24 10:44:14;;;;;;;8.65;4.10;;;;;;;24.85;60.55;99130.28;4379779;32;22885;-83
2023/03/24 10:46:45;;;;;;;8.38;3.90;;;;;;;24.80;60.54;99128.91;4393843;32;20449;-83
2023/03/24 10:49:18;;;;;;;9.80;4.28;;;;;;;24.94;60.55;99113.38;4369619;32;20122;-83
2023/03/24 10:51:55;;;;;;;8.43;4.00;;;;;;;25.00;60.55;99108.28;4379497;32;20144;-83
2023/03/24 10:54:24;;;;;;;11.07;4.50;;;;;;;24.79;60.54;99124.56;4367696;32;20110;-83
2023/03/24 10:56:51;;;;;;;7.87;3.85;;;;;;;24.93;60.55;99117.03;4392203;32;20110;-83
2023/03/24 10:59:31;;;;;;;7.47;4.22;;;;;;;24.87;60.54;99120.31;4367050;32;20122;-82
2023/03/24 11:02:10;;;;;;;6.80;2.92;;;;;;;25.03;60.55;99112.44;4393384;32;20097;-82
2023/03/24 11:04:39;;;;;;;7.60;3.50;;;;;;;25.18;60.56;99108.22;4393269;32;20098;-83
2023/03/24 11:07:21;;;;;;;6.70;3.33;;;;;;;25.28;60.56;99100.13;4367002;32;20110;-82
2023/03/24 11:10:04;;;;;;;9.75;3.87;;;;;;;25.24;60.56;99094.28;4367151;32;20118;-82
2023/03/24 11:12:31;;;;;;;8.88;3.92;;;;;;;25.50;60.58;99096.06;4367290;32;20396;-82
2023/03/24 11:15:20;;;;;;;9.00;3.92;;;;;;;25.55;60.59;99085.75;4367174;32;20483;-82
2023/03/24 11:17:55;;;;;;;8.00;4.00;;;;;;;25.68;60.60;99089.69;4391130;32;20502;-83
2023/03/24 11:20:31;;;;;;;8.38;4.03;;;;;;;25.87;60.60;99069.06;4354705;32;20137;-82
2023/03/24 11:23:08;;;;;;;10.82;3.47;;;;;;;25.78;60.59;99070.03;4367717;32;20120;-82
2023/03/24 11:25:35;;;;;;;6.10;3.42;;;;;;;25.82;60.59;99066.91;4379191;32;20106;-82
2023/03/24 11:28:32;;;;;;;7.35;3.83;;;;;;;26.04;60.61;99061.94;4367140;32;20526;-83
2023/03/24 11:30:57;;;;;;;8.05;3.12;;;;;;;26.10;60.61;99059.44;4366936;32;20125;-82
2023/03/24 11:33:32;;;;;;;5.37;3.00;;;;;;;25.99;60.60;99063.25;4391365;32;20369;-82